54.1°F
Current conditions from King Hill
Updated every 5 minutes
 
  Wednesday October 1, 2014

Station Historical Data
Daily Summary for August 3, 2011 Units:  Metric    English   Both
« Previous Day
Next Day »
Daily Weekly Monthly Yearly Custom
  High: Low: Average:
Temperature: 26.2 °C 11.6 °C 18.7 °C
Dew Point: 19.8 °C 10.8 °C 15.1 °C
Humidity: 97% 57% 81%
Wind Speed: 8km/h 0km/h 2.6km/h
Wind Gust: 14.5km/h - -
Wind- - South
Pressure: 1008 hPa 1005.3 hPa -
Precipitation: 0 mm    
Historical Graphs
 
 
Tabular Data for August 3, 2011
Time Temperature Dew Point Pressure Wind Wind Speed Wind Gust Humidity Daily Rainfall
00:00 13.6 °C 11.9 °C 1006 hPa Calm     90% 0 mm
00:05 13.5 °C 11.9 °C 1006 hPa Calm     90% 0 mm
00:10 13.4 °C 12 °C 1005.6 hPa Calm     91% 0 mm
00:15 13.4 °C 11.9 °C 1005.6 hPa Calm     91% 0 mm
00:20 13.3 °C 11.8 °C 1005.6 hPa Calm     91% 0 mm
00:25 13.2 °C 11.8 °C 1005.6 hPa Calm     91% 0 mm
00:30 13.1 °C 11.7 °C 1005.6 hPa Calm     91% 0 mm
00:35 13.1 °C 11.6 °C 1005.6 hPa Calm     91% 0 mm
00:40 13.1 °C 11.8 °C 1005.6 hPa Calm     92% 0 mm
00:45 13 °C 11.7 °C 1005.6 hPa Calm     92% 0 mm
00:50 12.9 °C 11.7 °C 1005.6 hPa Calm     92% 0 mm
00:55 12.9 °C 11.6 °C 1005.6 hPa Calm     92% 0 mm
01:00 12.9 °C 11.8 °C 1005.6 hPa Calm     93% 0 mm
01:05 12.9 °C 11.8 °C 1005.6 hPa Calm     93% 0 mm
01:10 12.9 °C 11.8 °C 1005.6 hPa Calm     93% 0 mm
01:15 13.1 °C 12.1 °C 1005.6 hPa Calm     94% 0 mm
01:20 13.3 °C 12.4 °C 1005.6 hPa Calm     94% 0 mm
01:25 13.2 °C 12.3 °C 1005.6 hPa Calm     94% 0 mm
01:30 13.2 °C 12.2 °C 1005.6 hPa Calm     94% 0 mm
01:35 13 °C 12.1 °C 1005.6 hPa Calm     94% 0 mm
01:40 12.9 °C 12 °C 1005.6 hPa Calm     94% 0 mm
01:45 12.9 °C 12 °C 1005.6 hPa Calm     94% 0 mm
01:50 13.1 °C 12.1 °C 1005.6 hPa Calm     94% 0 mm
01:55 13.1 °C 12.1 °C 1005.6 hPa Calm     94% 0 mm
02:00 13 °C 12.2 °C 1005.6 hPa Calm     95% 0 mm
02:05 13 °C 12.1 °C 1005.6 hPa Calm     94% 0 mm
02:15 12.8 °C 12.1 °C 1005.6 hPa Calm     95% 0 mm
02:20 12.8 °C 12 °C 1005.6 hPa Calm     95% 0 mm
02:25 12.6 °C 11.7 °C 1005.6 hPa Calm     94% 0 mm
02:30 12.4 °C 11.5 °C 1005.6 hPa Calm     94% 0 mm
02:35 12.4 °C 11.4 °C 1005.6 hPa Calm     94% 0 mm
02:40 12.3 °C 11.4 °C 1005.6 hPa Calm     94% 0 mm
02:45 12.3 °C 11.6 °C 1005.6 hPa Calm     95% 0 mm
02:50 12.4 °C 11.6 °C 1005.6 hPa Calm     95% 0 mm
02:55 12.3 °C 11.6 °C 1005.3 hPa Calm     95% 0 mm
03:00 12.2 °C 11.4 °C 1005.6 hPa Calm     95% 0 mm
03:05 12.1 °C 11.3 °C 1005.6 hPa Calm   1.6 km/h 95% 0 mm
03:10 12.3 °C 11.5 °C 1005.6 hPa Calm   1.6 km/h 95% 0 mm
03:15 12.6 °C 11.8 °C 1005.3 hPa Calm   1.6 km/h 95% 0 mm
03:20 12.7 °C 11.9 °C 1005.3 hPa Calm   1.6 km/h 95% 0 mm
03:25 12.4 °C 11.6 °C 1005.6 hPa Calm   1.6 km/h 95% 0 mm
03:30 12.2 °C 11.4 °C 1005.3 hPa Calm   1.6 km/h 95% 0 mm
03:35 12 °C 11.2 °C 1005.3 hPa Calm     95% 0 mm
03:40 11.9 °C 11.1 °C 1005.3 hPa Calm     95% 0 mm
03:45 12 °C 11.2 °C 1005.3 hPa Calm     95% 0 mm
03:50 12.1 °C 11.3 °C 1005.3 hPa Calm     95% 0 mm
03:55 12.1 °C 11.3 °C 1005.3 hPa Calm     95% 0 mm
04:00 12.1 °C 11.3 °C 1005.3 hPa Calm     95% 0 mm
04:05 12.1 °C 11.3 °C 1005.3 hPa Calm     95% 0 mm
04:10 11.9 °C 11.2 °C 1005.3 hPa Calm     95% 0 mm
04:15 11.9 °C 11.2 °C 1005.6 hPa Calm     95% 0 mm
04:25 11.8 °C 11.1 °C 1005.6 hPa Calm     95% 0 mm
04:30 11.7 °C 10.9 °C 1005.6 hPa Calm     95% 0 mm
04:35 11.7 °C 10.9 °C 1005.6 hPa Calm     95% 0 mm
04:40 11.6 °C 10.8 °C 1006 hPa Calm     95% 0 mm
04:45 11.6 °C 10.8 °C 1006 hPa Calm     95% 0 mm
04:50 11.6 °C 10.8 °C 1006 hPa Calm     95% 0 mm
04:55 11.6 °C 10.8 °C 1006 hPa Calm     95% 0 mm
05:00 11.6 °C 10.8 °C 1006 hPa Calm     95% 0 mm
05:05 11.6 °C 10.8 °C 1006 hPa Calm     95% 0 mm
05:10 11.7 °C 10.9 °C 1006 hPa Calm     95% 0 mm
05:15 11.9 °C 11.3 °C 1006 hPa Calm     96% 0 mm
05:20 12 °C 11.4 °C 1006.3 hPa Calm     96% 0 mm
05:25 11.9 °C 11.3 °C 1006.3 hPa Calm     96% 0 mm
05:30 11.8 °C 11 °C 1006 hPa Calm     95% 0 mm
05:35 11.8 °C 11 °C 1006 hPa Calm     95% 0 mm
05:40 11.8 °C 11.1 °C 1006 hPa Calm     95% 0 mm
05:45 11.9 °C 11.3 °C 1006.3 hPa Calm     96% 0 mm
05:50 11.9 °C 11.3 °C 1006 hPa Calm     96% 0 mm
05:55 12 °C 11.4 °C 1006 hPa Calm     96% 0 mm
06:00 12.1 °C 11.5 °C 1006 hPa Calm     96% 0 mm
06:05 12.1 °C 11.5 °C 1006.3 hPa Calm     96% 0 mm
06:10 12.1 °C 11.4 °C 1006.3 hPa Calm     96% 0 mm
06:15 12.2 °C 11.6 °C 1006.3 hPa Calm   1.6 km/h 96% 0 mm
06:20 12.2 °C 11.6 °C 1006.3 hPa Calm   1.6 km/h 96% 0 mm
06:25 12.1 °C 11.5 °C 1006.3 hPa Calm     96% 0 mm
06:30 12.2 °C 11.6 °C 1006.7 hPa Calm     96% 0 mm
06:35 12.3 °C 11.7 °C 1006.7 hPa Calm   1.6 km/h 96% 0 mm
06:40 12.7 °C 12.1 °C 1006.7 hPa Calm   1.6 km/h 96% 0 mm
06:45 12.8 °C 12.2 °C 1006.7 hPa Calm     96% 0 mm
06:50 13.1 °C 12.5 °C 1006.7 hPa Calm   1.6 km/h 96% 0 mm
06:55 13.4 °C 12.8 °C 1006.7 hPa Calm   1.6 km/h 96% 0 mm
07:00 13.6 °C 12.9 °C 1007 hPa Calm     96% 0 mm
07:05 13.8 °C 13.2 °C 1006.7 hPa Calm   1.6 km/h 96% 0 mm
07:10 14.4 °C 13.8 °C 1006.7 hPa Calm   1.6 km/h 96% 0 mm
07:15 15 °C 14.4 °C 1006.7 hPa Calm   3.2 km/h 96% 0 mm
07:20 15.5 °C 14.9 °C 1006.7 hPa Calm   4.8 km/h 96% 0 mm
07:25 15.8 °C 15.2 °C 1006.7 hPa Calm   4.8 km/h 96% 0 mm
07:30 16.2 °C 15.7 °C 1006.7 hPa Calm   1.6 km/h 97% 0 mm
07:40 16.4 °C 15.9 °C 1006.7 hPa Calm   1.6 km/h 97% 0 mm
07:45 16.6 °C 16.1 °C 1006.7 hPa Calm   1.6 km/h 97% 0 mm
07:55 16.8 °C 16.3 °C 1006.7 hPa Calm   1.6 km/h 97% 0 mm
08:00 16.8 °C 16.2 °C 1006.7 hPa Calm   1.6 km/h 96% 0 mm
08:05 16.3 °C 15.7 °C 1006.7 hPa Calm   4.8 km/h 96% 0 mm
08:10 16.1 °C 15.4 °C 1006.7 hPa East 1.6 km/h 6.4 km/h 96% 0 mm
08:20 15.9 °C 15.3 °C 1006.7 hPa Calm   8 km/h 96% 0 mm
08:25 15.9 °C 15.3 °C 1006.7 hPa Calm   6.4 km/h 96% 0 mm
08:30 16.1 °C 15.5 °C 1006.7 hPa Calm   6.4 km/h 96% 0 mm
08:35 16.7 °C 16 °C 1006.7 hPa Calm   1.6 km/h 96% 0 mm
08:40 17.1 °C 16.3 °C 1006.7 hPa Calm   1.6 km/h 95% 0 mm
08:45 17.6 °C 16.7 °C 1007 hPa Calm   1.6 km/h 95% 0 mm
08:50 17.9 °C 16.7 °C 1006.7 hPa ENE 1.6 km/h 6.4 km/h 93% 0 mm
08:55 18.4 °C 17.1 °C 1006.7 hPa Calm   6.4 km/h 92% 0 mm
09:00 19.1 °C 17.6 °C 1006.7 hPa Calm   6.4 km/h 91% 0 mm
09:05 19.5 °C 17.4 °C 1006.7 hPa ESE 3.2 km/h 8 km/h 88% 0 mm
09:10 20.1 °C 17.7 °C 1006.7 hPa Calm   8 km/h 86% 0 mm
09:15 20.6 °C 17.4 °C 1006.7 hPa Calm   1.6 km/h 82% 0 mm
09:20 20.9 °C 16.7 °C 1006.7 hPa Calm   4.8 km/h 77% 0 mm
09:25 20.9 °C 16.5 °C 1006.7 hPa Calm   6.4 km/h 76% 0 mm
09:35 20.8 °C 16.4 °C 1006.7 hPa Calm   1.6 km/h 76% 0 mm
09:40 20.8 °C 16.2 °C 1006.7 hPa Calm   1.6 km/h 75% 0 mm
09:45 20.8 °C 16.2 °C 1006.7 hPa Calm   1.6 km/h 75% 0 mm
09:50 20.9 °C 15.7 °C 1006.3 hPa Calm   1.6 km/h 72% 0 mm
09:55 21.1 °C 16.2 °C 1006.3 hPa Calm   1.6 km/h 74% 0 mm
10:00 21.6 °C 16.8 °C 1006.3 hPa Calm   1.6 km/h 74% 0 mm
10:05 22.1 °C 17 °C 1006.3 hPa Calm   6.4 km/h 73% 0 mm
10:10 22.5 °C 16.6 °C 1006.3 hPa Calm   6.4 km/h 69% 0 mm
10:15 22.4 °C 16.5 °C 1006.3 hPa SE 1.6 km/h 8 km/h 69% 0 mm
10:20 22.6 °C 15.9 °C 1006.3 hPa Calm   8 km/h 66% 0 mm
10:25 22.4 °C 16.3 °C 1006.7 hPa Calm   8 km/h 68% 0 mm
10:30 22.2 °C 16.3 °C 1006.3 hPa Calm   3.2 km/h 69% 0 mm
10:35 22.2 °C 16 °C 1006.3 hPa Calm   3.2 km/h 68% 0 mm
10:45 22 °C 16.5 °C 1006.3 hPa Calm   1.6 km/h 71% 0 mm
10:50 22.2 °C 16.7 °C 1006.3 hPa Calm   1.6 km/h 71% 0 mm
10:55 22.4 °C 16.3 °C 1006.3 hPa Calm   1.6 km/h 68% 0 mm
11:00 22.9 °C 17.1 °C 1006.3 hPa SSW 1.6 km/h 9.7 km/h 70% 0 mm
11:05 22.3 °C 15.9 °C 1006.3 hPa Calm   9.7 km/h 67% 0 mm
11:10 21.9 °C 15.6 °C 1006.3 hPa Calm   8 km/h 67% 0 mm
11:15 21.9 °C 16 °C 1006.3 hPa Calm   1.6 km/h 69% 0 mm
11:20 22.1 °C 17.1 °C 1006.3 hPa WNW 6.4 km/h 9.7 km/h 73% 0 mm
11:25 22.1 °C 17.4 °C 1006.3 hPa Calm   9.7 km/h 75% 0 mm
11:30 21.8 °C 17.2 °C 1006.3 hPa WNW 1.6 km/h 8 km/h 75% 0 mm
11:35 22.1 °C 17.3 °C 1006.3 hPa WNW 3.2 km/h 8 km/h 74% 0 mm
11:40 22.6 °C 17.9 °C 1006.3 hPa NW 6.4 km/h 12.9 km/h 75% 0 mm
11:45 22.9 °C 17.8 °C 1006.3 hPa NW 8 km/h 14.5 km/h 73% 0 mm
11:50 22.4 °C 16.9 °C 1006.3 hPa WNW 3.2 km/h 14.5 km/h 71% 0 mm
11:55 22.1 °C 17.8 °C 1006.3 hPa West 3.2 km/h 12.9 km/h 77% 0 mm
12:00 21.8 °C 17.6 °C 1006.3 hPa Calm   14.5 km/h 77% 0 mm
12:05 21.8 °C 17.6 °C 1006.3 hPa NW 1.6 km/h 14.5 km/h 77% 0 mm
12:10 21.7 °C 16.8 °C 1006.3 hPa NW 6.4 km/h 11.3 km/h 74% 0 mm
12:15 21.8 °C 17.2 °C 1006.3 hPa Calm   11.3 km/h 75% 0 mm
12:25 23.6 °C 18.5 °C 1006.3 hPa NW 1.6 km/h 12.9 km/h 73% 0 mm
12:30 24.2 °C 17.7 °C 1006.3 hPa WNW 6.4 km/h 11.3 km/h 67% 0 mm
12:35 24.2 °C 18.4 °C 1006.3 hPa WNW 6.4 km/h 11.3 km/h 70% 0 mm
12:40 24.4 °C 19.3 °C 1006 hPa WNW 3.2 km/h 14.5 km/h 73% 0 mm
12:45 24.5 °C 18.4 °C 1006.3 hPa WNW 1.6 km/h 14.5 km/h 69% 0 mm
12:50 24.1 °C 18.1 °C 1006.3 hPa Calm   12.9 km/h 69% 0 mm
12:55 23.4 °C 17.7 °C 1006 hPa WNW 3.2 km/h 9.7 km/h 70% 0 mm
13:00 23.2 °C 18.1 °C 1006 hPa Calm   9.7 km/h 73% 0 mm
13:05 23.7 °C 18.2 °C 1006 hPa NW 3.2 km/h 8 km/h 71% 0 mm
13:15 24.9 °C 18.2 °C 1006 hPa NNW 1.6 km/h 9.7 km/h 66% 0 mm
13:20 25.3 °C 19.2 °C 1006 hPa NW 3.2 km/h 9.7 km/h 69% 0 mm
13:25 25.5 °C 17.9 °C 1006 hPa ENE 1.6 km/h 9.7 km/h 63% 0 mm
13:30 25.6 °C 18.6 °C 1006 hPa NW 3.2 km/h 8 km/h 65% 0 mm
13:35 25.9 °C 19.1 °C 1006 hPa NW 1.6 km/h 9.7 km/h 66% 0 mm
13:40 26.2 °C 18.9 °C 1006 hPa NNW 1.6 km/h 12.9 km/h 64% 0 mm
13:45 26 °C 18.9 °C 1006 hPa Calm   12.9 km/h 65% 0 mm
13:50 25.8 °C 18.7 °C 1006 hPa North 1.6 km/h 8 km/h 65% 0 mm
13:55 25.8 °C 18.5 °C 1005.6 hPa NNW 1.6 km/h 8 km/h 64% 0 mm
14:00 25.8 °C 18.5 °C 1005.6 hPa Calm   8 km/h 64% 0 mm
14:05 25.9 °C 17.8 °C 1005.6 hPa NNE 1.6 km/h 6.4 km/h 61% 0 mm
14:10 25.9 °C 17.8 °C 1005.6 hPa North 1.6 km/h 6.4 km/h 61% 0 mm
14:15 25.8 °C 17.9 °C 1005.6 hPa NNE 1.6 km/h 9.7 km/h 62% 0 mm
14:20 25.9 °C 19.8 °C 1005.6 hPa Calm   12.9 km/h 69% 0 mm
14:25 26.1 °C 18.5 °C 1005.6 hPa NNE 1.6 km/h 12.9 km/h 63% 0 mm
14:30 25.8 °C 17.2 °C 1005.6 hPa NNE 3.2 km/h 9.7 km/h 59% 0 mm
14:35 25.3 °C 17.5 °C 1005.6 hPa Calm   9.7 km/h 62% 0 mm
14:40 24.9 °C 16.9 °C 1005.6 hPa NNW 1.6 km/h 8 km/h 61% 0 mm
14:45 24.7 °C 17.4 °C 1005.6 hPa Calm   4.8 km/h 64% 0 mm
14:50 24.7 °C 17.9 °C 1005.6 hPa Calm   4.8 km/h 66% 0 mm
14:55 25.1 °C 17.3 °C 1005.6 hPa NNE 4.8 km/h 9.7 km/h 62% 0 mm
15:00 24.8 °C 18.6 °C 1005.6 hPa NNE 1.6 km/h 12.9 km/h 68% 0 mm
15:05 24.4 °C 18.2 °C 1005.6 hPa Calm   12.9 km/h 68% 0 mm
15:10 24.3 °C 18.2 °C 1005.6 hPa Calm   8 km/h 69% 0 mm
15:15 24.3 °C 17.8 °C 1005.6 hPa Calm   3.2 km/h 67% 0 mm
15:25 25.3 °C 19.7 °C 1005.6 hPa Calm   6.4 km/h 71% 0 mm
15:30 25.4 °C 18.4 °C 1005.3 hPa Calm   6.4 km/h 65% 0 mm
15:35 25.7 °C 18.3 °C 1005.3 hPa Calm   6.4 km/h 64% 0 mm
15:40 25.8 °C 17.5 °C 1005.3 hPa ENE 1.6 km/h 4.8 km/h 60% 0 mm
15:45 25.9 °C 17.3 °C 1005.3 hPa Calm   8 km/h 59% 0 mm
15:50 25.9 °C 16.8 °C 1005.3 hPa NNE 1.6 km/h 11.3 km/h 57% 0 mm
15:55 25.9 °C 17.6 °C 1005.6 hPa Calm   11.3 km/h 60% 0 mm
16:00 25.6 °C 16.9 °C 1005.6 hPa Calm   6.4 km/h 59% 0 mm
16:05 25.3 °C 16.4 °C 1005.6 hPa Calm   8 km/h 58% 0 mm
16:10 25.3 °C 18.2 °C 1005.6 hPa Calm   8 km/h 65% 0 mm
16:15 25.2 °C 16.6 °C 1005.6 hPa SE 3.2 km/h 11.3 km/h 59% 0 mm
16:20 24.7 °C 16.4 °C 1005.6 hPa ENE 1.6 km/h 11.3 km/h 60% 0 mm
16:25 24.2 °C 16.9 °C 1005.6 hPa Calm   11.3 km/h 64% 0 mm
16:30 23.7 °C 17 °C 1005.6 hPa Calm   6.4 km/h 66% 0 mm
16:35 23.6 °C 18.2 °C 1005.6 hPa Calm   6.4 km/h 72% 0 mm
16:40 23.6 °C 17.4 °C 1005.6 hPa Calm   1.6 km/h 68% 0 mm
16:45 24.1 °C 18.1 °C 1005.6 hPa Calm   1.6 km/h 69% 0 mm
16:50 24.8 °C 16.8 °C 1005.6 hPa NE 1.6 km/h 9.7 km/h 61% 0 mm
16:55 25.1 °C 16.6 °C 1005.6 hPa Calm   9.7 km/h 59% 0 mm
17:00 25.2 °C 17.6 °C 1005.6 hPa NE 1.6 km/h 8 km/h 63% 0 mm
17:05 25.3 °C 17 °C 1006 hPa NE 1.6 km/h 8 km/h 60% 0 mm
17:10 25.5 °C 17.2 °C 1006 hPa Calm   8 km/h 60% 0 mm
17:15 25.6 °C 16.9 °C 1006 hPa Calm   8 km/h 59% 0 mm
17:20 25.4 °C 17.1 °C 1006 hPa Calm   8 km/h 60% 0 mm
17:25 25.4 °C 17.1 °C 1006 hPa Calm   1.6 km/h 60% 0 mm
17:30 25.5 °C 17.7 °C 1005.6 hPa Calm   8 km/h 62% 0 mm
17:35 25.4 °C 17.4 °C 1006 hPa NNE 1.6 km/h 8 km/h 61% 0 mm
17:40 25.3 °C 16.2 °C 1006 hPa Calm   4.8 km/h 57% 0 mm
17:45 25.1 °C 17.1 °C 1006 hPa NNE 1.6 km/h 8 km/h 61% 0 mm
17:50 24.6 °C 17.1 °C 1006 hPa Calm   8 km/h 63% 0 mm
17:55 24 °C 16.6 °C 1006 hPa Calm   6.4 km/h 63% 0 mm
18:00 23.6 °C 16.6 °C 1006 hPa Calm   1.6 km/h 65% 0 mm
18:05 23.3 °C 16.8 °C 1006.3 hPa Calm   1.6 km/h 67% 0 mm
18:10 23 °C 16.8 °C 1006.3 hPa Calm     68% 0 mm
18:15 22.8 °C 17.5 °C 1006.3 hPa Calm     72% 0 mm
18:20 22.8 °C 17.9 °C 1006.3 hPa Calm     74% 0 mm
18:25 22.7 °C 17.2 °C 1006 hPa Calm     71% 0 mm
18:30 22.4 °C 17.1 °C 1006.3 hPa Calm     72% 0 mm
18:40 22.1 °C 17.1 °C 1006.3 hPa Calm   1.6 km/h 73% 0 mm
18:45 22.1 °C 17.3 °C 1006.3 hPa Calm     74% 0 mm
18:50 21.9 °C 17.3 °C 1006.3 hPa Calm     75% 0 mm
18:55 21.9 °C 17.7 °C 1006.3 hPa Calm     77% 0 mm
19:00 21.8 °C 17.8 °C 1006.7 hPa Calm     78% 0 mm
19:05 21.8 °C 17.6 °C 1006.7 hPa Calm     77% 0 mm
19:10 21.6 °C 17.2 °C 1006.3 hPa Calm     76% 0 mm
19:15 21.4 °C 16.8 °C 1006.7 hPa Calm     75% 0 mm
19:20 21.3 °C 16.9 °C 1006.7 hPa Calm     76% 0 mm
19:25 21.2 °C 17.1 °C 1006.7 hPa Calm     77% 0 mm
19:30 21.1 °C 16.9 °C 1006.7 hPa Calm     77% 0 mm
19:35 20.9 °C 16.7 °C 1006.7 hPa Calm   3.2 km/h 77% 0 mm
19:40 20.7 °C 16.5 °C 1006.7 hPa Calm   3.2 km/h 77% 0 mm
19:45 20.5 °C 16.3 °C 1006.7 hPa Calm   3.2 km/h 77% 0 mm
19:50 20.3 °C 16.3 °C 1006.7 hPa Calm   1.6 km/h 78% 0 mm
19:55 20.1 °C 16.3 °C 1006.7 hPa Calm     79% 0 mm
20:00 19.8 °C 16.1 °C 1006.7 hPa NNE 1.6 km/h 4.8 km/h 79% 0 mm
20:05 19.6 °C 16.1 °C 1006.7 hPa Calm   4.8 km/h 80% 0 mm
20:10 19.4 °C 15.8 °C 1006.7 hPa NNE 1.6 km/h 4.8 km/h 80% 0 mm
20:20 19.3 °C 15.9 °C 1007 hPa NE 1.6 km/h 6.4 km/h 81% 0 mm
20:25 19.4 °C 15.8 °C 1007 hPa NNE 3.2 km/h 11.3 km/h 80% 0 mm
20:30 19.5 °C 15.9 °C 1007 hPa NE 1.6 km/h 11.3 km/h 80% 0 mm
20:35 19.6 °C 16.1 °C 1007 hPa NNE 1.6 km/h 8 km/h 80% 0 mm
20:40 19.6 °C 15.9 °C 1007 hPa Calm   8 km/h 79% 0 mm
20:45 19.6 °C 15.8 °C 1007 hPa Calm   6.4 km/h 79% 0 mm
20:55 19.3 °C 15.8 °C 1007 hPa Calm   1.6 km/h 80% 0 mm
21:00 19.2 °C 15.8 °C 1007 hPa Calm   1.6 km/h 81% 0 mm
21:05 18.9 °C 15.8 °C 1007 hPa Calm     82% 0 mm
21:10 18.7 °C 15.6 °C 1007.3 hPa Calm   3.2 km/h 82% 0 mm
21:15 18.6 °C 15.7 °C 1007.3 hPa Calm   3.2 km/h 83% 0 mm
21:20 18.5 °C 15.6 °C 1007.3 hPa Calm   1.6 km/h 83% 0 mm
21:25 18.4 °C 15.4 °C 1007.3 hPa Calm   1.6 km/h 83% 0 mm
21:30 18.3 °C 15.4 °C 1007.3 hPa Calm   1.6 km/h 83% 0 mm
21:35 18.2 °C 15.3 °C 1007.3 hPa Calm     83% 0 mm
21:45 17.9 °C 15.2 °C 1007.3 hPa Calm     84% 0 mm
21:50 17.8 °C 15.2 °C 1007.3 hPa Calm     85% 0 mm
21:55 17.7 °C 15.1 °C 1007.3 hPa Calm     85% 0 mm
22:00 17.6 °C 15.2 °C 1007.3 hPa Calm     86% 0 mm
22:05 17.4 °C 15.1 °C 1007.3 hPa Calm   1.6 km/h 86% 0 mm
22:10 17.3 °C 14.9 °C 1007.3 hPa Calm   1.6 km/h 86% 0 mm
22:15 17.2 °C 15.1 °C 1007.3 hPa Calm   1.6 km/h 87% 0 mm
22:20 17.2 °C 15 °C 1007.3 hPa Calm     87% 0 mm
22:25 17.1 °C 15.1 °C 1007.3 hPa Calm   1.6 km/h 88% 0 mm
22:30 17.1 °C 15.1 °C 1007.3 hPa Calm   1.6 km/h 88% 0 mm
22:35 17.1 °C 15.1 °C 1007.3 hPa Calm     88% 0 mm
22:40 17.1 °C 15.1 °C 1007.3 hPa Calm     88% 0 mm
22:45 17 °C 15 °C 1007.3 hPa Calm     88% 0 mm
22:50 17 °C 15 °C 1007.3 hPa Calm     88% 0 mm
22:55 17 °C 15.2 °C 1007.7 hPa Calm     89% 0 mm
23:00 16.9 °C 15.1 °C 1007.3 hPa Calm     89% 0 mm
23:05 16.9 °C 15.1 °C 1007.7 hPa Calm     89% 0 mm
23:10 16.8 °C 15 °C 1007.7 hPa Calm     89% 0 mm
23:15 16.8 °C 14.8 °C 1007.7 hPa Calm     88% 0 mm
23:20 16.7 °C 14.7 °C 1007.7 hPa Calm     88% 0 mm
23:25 16.6 °C 14.8 °C 1007.7 hPa Calm     89% 0 mm
23:30 16.6 °C 14.8 °C 1007.7 hPa Calm     89% 0 mm
23:35 16.5 °C 14.7 °C 1007.7 hPa Calm     89% 0 mm
23:40 16.4 °C 14.6 °C 1007.7 hPa Calm     89% 0 mm
23:45 16.4 °C 14.6 °C 1008 hPa Calm     89% 0 mm
23:50 16.3 °C 14.4 °C 1008 hPa Calm     89% 0 mm
23:55 16.2 °C 14.3 °C 1008 hPa Calm     89% 0 mm
Westford Weather
Compliments of Weather Underground

 
 
Current Radar Loop:

Copyright © WestfordWeather.net 2007-2014. All rights reserved.